createdAt,value
2022-12-12T00:01:18.125Z,96050.97
2022-12-12T00:03:46.605Z,96051.84
2022-12-12T00:06:39.703Z,96051.78
2022-12-12T00:09:09.524Z,96053.41
2022-12-12T00:11:38.881Z,96044.06
2022-12-12T00:14:07.170Z,96053.47
2022-12-12T00:16:35.149Z,96044.13
2022-12-12T00:19:03.291Z,96050.03
2022-12-12T00:21:31.467Z,96040.72
2022-12-12T00:23:59.730Z,96054.25
2022-12-12T00:26:29.932Z,96044.09
2022-12-12T00:29:00.663Z,96033.91
2022-12-12T00:31:29.719Z,96045.81
2022-12-12T00:33:58.228Z,96036.53
2022-12-12T00:36:29.337Z,96046.69
2022-12-12T00:38:58.170Z,96042.41
2022-12-12T00:41:26.314Z,96038.19
2022-12-12T00:43:54.448Z,96031.34
2022-12-12T00:46:26.380Z,96037.38
2022-12-12T00:48:56.277Z,96039.06
2022-12-12T00:51:26.910Z,96032.19
2022-12-12T00:53:57.904Z,96037.38
2022-12-12T00:56:27.301Z,96032.25
2022-12-12T00:58:55.653Z,96029.75
2022-12-12T01:01:28.003Z,96031.44
2022-12-12T01:03:56.539Z,96031.47
2022-12-12T01:06:25.061Z,96039.13
2022-12-12T01:08:53.907Z,96033.19
2022-12-12T01:11:22.656Z,96034.84
2022-12-12T01:13:52.996Z,96044.09
2022-12-12T01:16:21.877Z,96042.44
2022-12-12T01:18:51.761Z,96047.53
2022-12-12T01:21:21.362Z,96041.66
2022-12-12T01:23:49.847Z,96040.81
2022-12-12T01:26:20.390Z,96034.84
2022-12-12T01:29:45.191Z,96042.47
2022-12-12T01:32:13.542Z,96039.13
2022-12-12T01:34:42.824Z,96037.41
2022-12-12T01:37:11.035Z,96056.91
2022-12-12T01:39:39.017Z,96048.44
2022-12-12T01:42:14.078Z,96042.47
2022-12-12T01:44:45.210Z,96050.91
2022-12-12T01:47:14.711Z,96060.25
2022-12-12T01:49:47.877Z,96052.59
2022-12-12T01:52:20.878Z,96049.22
2022-12-12T01:54:56.182Z,96050.06
2022-12-12T01:57:30.603Z,96054.31
2022-12-12T01:59:59.841Z,96059.44
2022-12-12T02:02:28.982Z,96059.38
2022-12-12T02:05:01.242Z,96055.97
2022-12-12T02:07:29.460Z,96055.13
2022-12-12T02:09:57.650Z,96051.81
2022-12-12T02:12:25.864Z,96041.59
2022-12-12T02:14:55.969Z,96053.47
2022-12-12T02:17:37.743Z,96052.59
2022-12-12T02:20:38.046Z,96052.69
2022-12-12T02:23:36.294Z,96042.50
2022-12-12T02:26:25.402Z,96050.94
2022-12-12T02:29:12.086Z,96050.97
2022-12-12T02:31:50.307Z,96041.63
2022-12-12T02:34:32.707Z,96046.69
2022-12-12T02:37:07.584Z,96042.44
2022-12-12T02:39:45.837Z,96046.72
2022-12-12T02:42:22.897Z,96035.69
2022-12-12T02:44:58.071Z,96038.19
2022-12-12T02:47:31.393Z,96035.66
2022-12-12T02:50:04.280Z,96039.94
2022-12-12T02:52:33.878Z,96049.25
2022-12-12T02:55:02.521Z,96049.25
2022-12-12T02:57:31.193Z,96047.56
2022-12-12T03:00:04.090Z,96045.84
2022-12-12T03:02:48.342Z,96047.56
2022-12-12T03:05:57.959Z,96041.66
2022-12-12T03:08:46.048Z,96046.69
2022-12-12T03:11:21.409Z,96049.28
2022-12-12T03:13:57.574Z,96049.28
2022-12-12T03:16:29.279Z,96048.38
2022-12-12T03:19:07.905Z,96056.00
2022-12-12T03:21:40.735Z,96049.19
2022-12-12T03:24:20.119Z,96045.78
2022-12-12T03:26:53.568Z,96051.72
2022-12-12T03:29:28.282Z,96048.34
2022-12-12T03:32:01.655Z,96048.31
2022-12-12T03:34:37.087Z,96044.09
2022-12-12T03:37:13.855Z,96052.63
2022-12-12T03:39:47.489Z,96054.34
2022-12-12T03:42:25.567Z,96045.84
2022-12-12T03:45:00.165Z,96038.16
2022-12-12T03:47:34.162Z,96050.97
2022-12-12T03:50:09.065Z,96037.28
2022-12-12T03:52:42.600Z,96039.94
2022-12-12T03:55:15.394Z,96046.69
2022-12-12T03:57:48.690Z,96053.50
2022-12-12T04:00:18.244Z,96048.38
2022-12-12T04:02:52.646Z,96053.44
2022-12-12T04:05:26.837Z,96056.03
2022-12-12T04:08:01.942Z,96054.34
2022-12-12T04:10:54.068Z,96051.75
2022-12-12T04:13:33.613Z,96055.19
2022-12-12T04:16:06.732Z,96057.69
2022-12-12T04:18:40.630Z,96059.41
2022-12-12T04:21:39.983Z,96050.94
2022-12-12T04:24:21.438Z,96055.09
2022-12-12T04:26:56.817Z,96055.16
2022-12-12T04:29:32.139Z,96056.84
2022-12-12T04:32:08.963Z,96053.47
2022-12-12T04:34:44.429Z,96054.31
2022-12-12T04:37:18.261Z,96053.47
2022-12-12T04:39:49.667Z,96053.50
2022-12-12T04:42:22.684Z,96056.88
2022-12-12T04:44:56.103Z,96056.88
2022-12-12T04:47:26.783Z,96062.78
2022-12-12T04:49:57.968Z,96059.44
2022-12-12T04:52:32.612Z,96064.50
2022-12-12T04:55:04.591Z,96062.81
2022-12-12T04:57:39.906Z,96061.97
2022-12-12T05:00:09.967Z,96062.78
2022-12-12T05:02:46.284Z,96061.91
2022-12-12T05:05:20.189Z,96052.59
2022-12-12T05:07:53.998Z,96055.22
2022-12-12T05:10:22.518Z,96056.81
2022-12-12T05:12:52.400Z,96052.66
2022-12-12T05:15:22.082Z,96061.13
2022-12-12T05:18:02.895Z,96059.47
2022-12-12T05:20:31.013Z,96065.38
2022-12-12T05:23:00.493Z,96068.75
2022-12-12T05:25:28.720Z,96063.69
2022-12-12T05:27:57.072Z,96061.13
2022-12-12T05:30:26.614Z,96067.88
2022-12-12T05:32:55.096Z,96067.91
2022-12-12T05:35:23.588Z,96073.84
2022-12-12T05:37:52.273Z,96066.13
2022-12-12T05:40:23.473Z,96066.22
2022-12-12T05:42:53.267Z,96058.50
2022-12-12T05:45:21.346Z,96071.25
2022-12-12T05:47:49.794Z,96075.53
2022-12-12T05:50:18.726Z,96062.75
2022-12-12T05:52:46.996Z,96074.66
2022-12-12T05:55:15.572Z,96077.22
2022-12-12T05:57:45.360Z,96080.53
2022-12-12T06:00:14.361Z,96078.06
2022-12-12T06:02:42.709Z,96078.03
2022-12-12T06:05:11.581Z,96082.25
2022-12-12T06:07:40.265Z,96080.56
2022-12-12T06:10:09.577Z,96079.75
2022-12-12T06:12:37.639Z,96084.84
2022-12-12T06:15:07.965Z,96081.41
2022-12-12T06:17:36.232Z,96084.00
2022-12-12T06:20:05.860Z,96084.84
2022-12-12T06:22:35.978Z,96078.03
2022-12-12T06:25:05.003Z,96078.06
2022-12-12T06:27:33.105Z,96087.38
2022-12-12T06:30:01.467Z,96083.09
2022-12-12T06:32:30.990Z,96074.63
2022-12-12T06:34:59.180Z,96086.47
2022-12-12T06:37:27.323Z,96085.66
2022-12-12T06:39:55.532Z,96086.59
2022-12-12T06:42:23.559Z,96093.28
2022-12-12T06:44:51.638Z,96093.28
2022-12-12T06:47:19.936Z,96094.94
2022-12-12T06:49:49.299Z,96100.00
2022-12-12T06:52:17.428Z,96111.13
2022-12-12T06:54:45.568Z,96106.81
2022-12-12T06:57:14.072Z,96108.56
2022-12-12T06:59:42.257Z,96113.59
2022-12-12T07:02:12.562Z,96114.47
2022-12-12T07:04:40.764Z,96110.25
2022-12-12T07:07:10.298Z,96108.56
2022-12-12T07:09:38.442Z,96111.97
2022-12-12T07:12:06.726Z,96113.66
2022-12-12T07:14:35.034Z,96111.19
2022-12-12T07:17:03.056Z,96117.09
2022-12-12T07:19:31.209Z,96121.28
2022-12-12T07:22:02.850Z,96121.31
2022-12-12T07:24:35.382Z,96120.47
2022-12-12T07:27:03.421Z,96122.19
2022-12-12T07:29:31.568Z,96122.16
2022-12-12T07:32:00.101Z,96128.06
2022-12-12T07:34:30.423Z,96130.66
2022-12-12T07:37:02.923Z,96132.34
2022-12-12T07:39:31.740Z,96138.31
2022-12-12T07:42:01.485Z,96128.13
2022-12-12T07:44:29.683Z,96139.16
2022-12-12T07:46:59.099Z,96128.06
2022-12-12T07:49:29.050Z,96128.97
2022-12-12T07:51:57.420Z,96134.00
2022-12-12T07:54:25.471Z,96134.81
2022-12-12T07:56:53.710Z,96134.03
2022-12-12T07:59:23.151Z,96139.06
2022-12-12T08:01:51.291Z,96140.78
2022-12-12T08:04:19.437Z,96139.06
2022-12-12T08:06:49.980Z,96145.88
2022-12-12T08:09:20.181Z,96145.94
2022-12-12T08:11:48.217Z,96154.31
2022-12-12T08:14:16.638Z,96148.38
2022-12-12T08:16:46.121Z,96146.69
2022-12-12T08:19:14.209Z,96159.44
2022-12-12T08:21:42.975Z,96160.97
2022-12-12T08:24:13.120Z,96162.78
2022-12-12T08:26:41.269Z,96162.88
2022-12-12T08:29:10.778Z,96169.59
2022-12-12T08:31:39.541Z,96178.91
2022-12-12T08:34:09.819Z,96178.09
2022-12-12T08:36:38.134Z,96182.38
2022-12-12T08:39:09.534Z,96179.84
2022-12-12T08:41:40.356Z,96189.16
2022-12-12T08:44:10.031Z,96175.47
2022-12-12T08:46:38.474Z,96184.81
2022-12-12T08:49:06.762Z,96187.31
2022-12-12T08:51:36.178Z,96193.34
2022-12-12T08:54:04.473Z,96184.59
2022-12-12T08:56:32.628Z,96193.31
2022-12-12T08:59:01.230Z,96188.25
2022-12-12T09:01:29.728Z,96189.97
2022-12-12T09:03:58.690Z,96184.00
2022-12-12T09:06:28.016Z,96182.25
2022-12-12T09:08:58.398Z,96195.88
2022-12-12T09:11:27.210Z,96202.63
2022-12-12T09:13:55.478Z,96194.16
2022-12-12T09:16:26.552Z,96195.78
2022-12-12T09:18:54.880Z,96202.56
2022-12-12T09:21:23.357Z,96201.47
2022-12-12T09:23:51.639Z,96198.22
2022-12-12T09:26:21.247Z,96210.06
2022-12-12T09:28:50.458Z,96213.59
2022-12-12T09:31:19.228Z,96216.00
2022-12-12T09:33:47.820Z,96215.06
2022-12-12T09:36:15.982Z,96210.19
2022-12-12T09:38:44.842Z,96214.38
2022-12-12T09:41:15.954Z,96224.66
2022-12-12T09:43:52.384Z,96218.59
2022-12-12T09:46:34.766Z,96219.47
2022-12-12T09:49:12.639Z,96221.19
2022-12-12T09:51:41.843Z,96216.91
2022-12-12T09:54:14.547Z,96221.00
2022-12-12T09:56:52.121Z,96219.38
2022-12-12T09:59:28.782Z,96221.78
2022-12-12T10:02:05.653Z,96222.72
2022-12-12T10:04:40.614Z,96220.16
2022-12-12T10:07:18.337Z,96220.28
2022-12-12T10:10:03.992Z,96226.31
2022-12-12T10:12:34.701Z,96227.91
2022-12-12T10:15:08.280Z,96222.91
2022-12-12T10:17:41.443Z,96231.28
2022-12-12T10:20:16.743Z,96220.16
2022-12-12T10:22:49.473Z,96229.59
2022-12-12T10:25:22.368Z,96232.31
2022-12-12T10:27:53.256Z,96237.41
2022-12-12T10:30:23.171Z,96236.50
2022-12-12T10:33:14.988Z,96231.13
2022-12-12T10:35:54.596Z,96226.78
2022-12-12T10:38:37.640Z,96226.13
2022-12-12T10:41:13.116Z,96225.28
2022-12-12T10:43:47.598Z,96233.88
2022-12-12T10:46:29.356Z,96235.50
2022-12-12T10:48:58.188Z,96234.56
2022-12-12T10:51:30.606Z,96232.91
2022-12-12T10:53:58.785Z,96242.16
2022-12-12T10:56:29.009Z,96243.09
2022-12-12T10:58:59.461Z,96244.03
2022-12-12T11:02:00.975Z,96241.38
2022-12-12T11:04:22.448Z,96251.81
2022-12-12T11:06:53.656Z,96252.44
2022-12-12T11:09:26.019Z,96250.81
2022-12-12T11:11:59.684Z,96249.22
2022-12-12T11:14:33.791Z,96245.63
2022-12-12T11:17:03.560Z,96243.00
2022-12-12T11:19:40.033Z,96248.31
2022-12-12T11:22:13.615Z,96250.91
2022-12-12T11:24:45.869Z,96247.28
2022-12-12T11:27:22.865Z,96244.53
2022-12-12T11:29:54.010Z,96252.38
2022-12-12T11:32:27.084Z,96252.38
2022-12-12T11:34:59.065Z,96248.09
2022-12-12T11:37:31.268Z,96251.50
2022-12-12T11:39:59.478Z,96243.00
2022-12-12T11:42:29.920Z,96254.94
2022-12-12T11:45:03.103Z,96255.81
2022-12-12T11:47:40.788Z,96259.34
2022-12-12T11:50:23.772Z,96263.53
2022-12-12T11:52:56.110Z,96262.81
2022-12-12T11:55:35.011Z,96253.75
2022-12-12T11:58:14.888Z,96266.00
2022-12-12T12:00:50.518Z,96258.91
2022-12-12T12:03:48.098Z,96260.47
2022-12-12T12:06:33.480Z,96255.44
2022-12-12T12:09:17.612Z,96261.56
2022-12-12T12:11:56.465Z,96261.56
2022-12-12T12:14:40.728Z,96262.38
2022-12-12T12:17:17.383Z,96258.16
2022-12-12T12:19:54.949Z,96267.75
2022-12-12T12:22:32.243Z,96264.94
2022-12-12T12:25:31.837Z,96264.22
2022-12-12T12:28:13.818Z,96263.34
2022-12-12T12:30:55.875Z,96258.09
2022-12-12T12:33:35.569Z,96260.00
2022-12-12T12:36:20.905Z,96260.94
2022-12-12T12:39:12.673Z,96253.03
2022-12-12T12:41:57.185Z,96266.03
2022-12-12T12:44:45.423Z,96269.53
2022-12-12T12:47:27.848Z,96273.78
2022-12-12T12:50:00.611Z,96264.19
2022-12-12T12:52:36.411Z,96270.28
2022-12-12T12:55:13.418Z,96269.47
2022-12-12T12:57:45.499Z,96267.81
2022-12-12T13:00:18.096Z,96273.69
2022-12-12T13:02:51.866Z,96271.03
2022-12-12T13:06:45.561Z,96275.31
2022-12-12T13:09:28.944Z,96271.28
2022-12-12T13:12:02.542Z,96282.19
2022-12-12T13:14:41.159Z,96278.88
2022-12-12T13:17:17.837Z,96282.16
2022-12-12T13:19:48.256Z,96287.34
2022-12-12T13:22:25.630Z,96280.53
2022-12-12T13:25:00.585Z,96298.59
2022-12-12T13:27:35.303Z,96283.22
2022-12-12T13:30:10.158Z,96284.59
2022-12-12T13:32:57.251Z,96293.34
2022-12-12T13:35:30.820Z,96291.66
2022-12-12T13:38:01.643Z,96295.84
2022-12-12T13:40:32.144Z,96301.81
2022-12-12T13:43:09.176Z,96297.38
2022-12-12T13:45:42.961Z,96301.50
2022-12-12T13:48:34.399Z,96304.28
2022-12-12T13:51:38.940Z,96308.56
2022-12-12T13:54:52.985Z,96315.53
2022-12-12T13:57:33.573Z,96321.50
2022-12-12T14:00:22.875Z,96319.75
2022-12-12T14:03:01.695Z,96329.06
2022-12-12T14:05:34.221Z,96318.97
2022-12-12T14:08:08.211Z,96319.88
2022-12-12T14:10:38.999Z,96319.75
2022-12-12T14:13:30.131Z,96322.22
2022-12-12T14:16:04.537Z,96320.50
2022-12-12T14:18:36.998Z,96322.19
2022-12-12T14:21:08.432Z,96331.56
2022-12-12T14:23:38.278Z,96327.31
2022-12-12T14:26:39.686Z,96340.06
2022-12-12T14:29:28.869Z,96339.13
2022-12-12T14:32:16.820Z,96339.19
2022-12-12T14:34:51.030Z,96340.88
2022-12-12T14:37:51.360Z,96337.53
2022-12-12T14:40:22.947Z,96331.56
2022-12-12T14:43:19.081Z,96338.47
2022-12-12T14:45:56.206Z,96345.19
2022-12-12T14:48:27.803Z,96346.06
2022-12-12T14:51:00.579Z,96340.94
2022-12-12T14:53:36.457Z,96342.59
2022-12-12T14:56:10.094Z,96347.81
2022-12-12T14:58:41.427Z,96343.56
2022-12-12T15:01:11.504Z,96347.84
2022-12-12T15:03:44.136Z,96354.66
2022-12-12T15:06:38.115Z,96351.94
2022-12-12T15:09:18.665Z,96352.00
2022-12-12T15:11:48.444Z,96347.00
2022-12-12T15:14:20.304Z,96347.88
2022-12-12T15:16:57.223Z,96343.63
2022-12-12T15:19:30.070Z,96357.22
2022-12-12T15:21:59.162Z,96358.16
2022-12-12T15:24:30.154Z,96359.00
2022-12-12T15:27:00.083Z,96370.06
2022-12-12T15:29:32.219Z,96370.97
2022-12-12T15:32:05.104Z,96377.75
2022-12-12T15:34:40.355Z,96373.47
2022-12-12T15:37:21.045Z,96373.47
2022-12-12T15:40:00.941Z,96377.75
2022-12-12T15:42:29.654Z,96387.06
2022-12-12T15:44:58.271Z,96381.91
2022-12-12T15:47:27.951Z,96381.94
2022-12-12T15:49:56.366Z,96390.53
2022-12-12T15:52:28.258Z,96390.50
2022-12-12T15:54:58.250Z,96388.81
2022-12-12T15:57:28.711Z,96388.78
2022-12-12T16:00:01.280Z,96387.09
2022-12-12T16:02:32.271Z,96395.59
2022-12-12T16:05:06.950Z,96388.81
2022-12-12T16:07:37.822Z,96400.72
2022-12-12T16:10:22.764Z,96399.00
2022-12-12T16:13:00.245Z,96399.88
2022-12-12T16:15:35.020Z,96410.94
2022-12-12T16:18:07.845Z,96412.63
2022-12-12T16:20:36.223Z,96406.69
2022-12-12T16:23:18.578Z,96419.41
2022-12-12T16:25:49.820Z,96418.59
2022-12-12T16:28:25.897Z,96421.13
2022-12-12T16:30:58.059Z,96410.06
2022-12-12T16:33:31.372Z,96414.31
2022-12-12T16:36:01.693Z,96427.06
2022-12-12T16:38:30.509Z,96435.56
2022-12-12T16:41:01.976Z,96436.41
2022-12-12T16:43:30.508Z,96440.63
2022-12-12T16:45:59.676Z,96441.44
2022-12-12T16:48:33.446Z,96438.84
2022-12-12T16:51:04.275Z,96436.41
2022-12-12T16:53:32.991Z,96438.06
2022-12-12T16:56:03.150Z,96438.91
2022-12-12T16:58:33.510Z,96436.38
2022-12-12T17:01:02.906Z,96449.81
2022-12-12T17:03:32.952Z,96447.31
2022-12-12T17:06:02.589Z,96447.38
2022-12-12T17:08:30.854Z,96461.91
2022-12-12T17:11:09.602Z,96452.53
2022-12-12T17:13:40.699Z,96454.13
2022-12-12T17:16:09.217Z,96460.13
2022-12-12T17:18:38.709Z,96465.28
2022-12-12T17:21:07.176Z,96460.97
2022-12-12T17:23:35.283Z,96466.00
2022-12-12T17:26:05.074Z,96464.31
2022-12-12T17:28:35.160Z,96469.38
2022-12-12T17:31:07.810Z,96461.66
2022-12-12T17:33:45.796Z,96464.31
2022-12-12T17:36:20.175Z,96463.50
2022-12-12T17:38:48.814Z,96482.94
2022-12-12T17:41:16.900Z,96483.78
2022-12-12T17:43:46.553Z,96476.16
2022-12-12T17:46:18.981Z,96483.78
2022-12-12T17:48:49.100Z,96482.03
2022-12-12T17:51:21.971Z,96475.38
2022-12-12T17:53:52.485Z,96482.03
2022-12-12T17:56:22.770Z,96484.66
2022-12-12T17:58:52.426Z,96490.63
2022-12-12T18:01:23.611Z,96487.22
2022-12-12T18:03:52.667Z,96490.53
2022-12-12T18:06:23.910Z,96489.69
2022-12-12T18:08:54.648Z,96491.44
2022-12-12T18:11:26.965Z,96494.00
2022-12-12T18:13:57.694Z,96482.97
2022-12-12T18:16:29.237Z,96490.53
2022-12-12T18:18:58.064Z,96495.56
2022-12-12T18:21:59.013Z,96496.50
2022-12-12T18:24:19.828Z,96502.53
2022-12-12T18:26:52.687Z,96511.66
2022-12-12T18:29:22.178Z,96505.00
2022-12-12T18:31:50.269Z,96510.06
2022-12-12T18:34:18.891Z,96510.19
2022-12-12T18:36:49.358Z,96512.59
2022-12-12T18:39:17.933Z,96517.59
2022-12-12T18:41:46.218Z,96513.59
2022-12-12T18:44:16.033Z,96507.63
2022-12-12T18:46:44.867Z,96508.63
2022-12-12T18:49:15.675Z,96511.13
2022-12-12T18:51:45.434Z,96515.25
2022-12-12T18:54:17.055Z,96503.47
2022-12-12T18:56:46.303Z,96508.41
2022-12-12T18:59:15.471Z,96510.13
2022-12-12T19:01:44.088Z,96511.78
2022-12-12T19:04:16.266Z,96519.31
2022-12-12T19:06:49.492Z,96524.47
2022-12-12T19:09:20.604Z,96526.06
2022-12-12T19:11:54.227Z,96527.84
2022-12-12T19:14:35.694Z,96522.00
2022-12-12T19:17:08.672Z,96524.56
2022-12-12T19:19:36.877Z,96529.53
2022-12-12T19:22:18.555Z,96524.44
2022-12-12T19:24:54.440Z,96524.56
2022-12-12T19:27:22.746Z,96531.22
2022-12-12T19:29:51.413Z,96528.91
2022-12-12T19:32:19.825Z,96528.03
2022-12-12T19:34:49.511Z,96531.34
2022-12-12T19:37:17.650Z,96528.81
2022-12-12T19:39:45.732Z,96531.47
2022-12-12T19:42:15.431Z,96533.19
2022-12-12T19:44:43.881Z,96532.28
2022-12-12T19:47:13.147Z,96529.78
2022-12-12T19:49:41.541Z,96531.44
2022-12-12T19:52:14.017Z,96533.94
2022-12-12T19:54:44.529Z,96534.00
2022-12-12T19:57:12.754Z,96538.94
2022-12-12T19:59:42.338Z,96541.63
2022-12-12T20:02:11.428Z,96544.09
2022-12-12T20:04:40.044Z,96549.19
2022-12-12T20:07:08.286Z,96545.06
2022-12-12T20:09:37.121Z,96540.72
2022-12-12T20:12:06.090Z,96542.34
2022-12-12T20:14:35.911Z,96539.09
2022-12-12T20:17:05.596Z,96536.63
2022-12-12T20:19:33.894Z,96545.03
2022-12-12T20:22:03.332Z,96546.69
2022-12-12T20:24:32.827Z,96555.13
2022-12-12T20:27:04.531Z,96547.44
2022-12-12T20:29:33.554Z,96549.16
2022-12-12T20:32:01.994Z,96555.78
2022-12-12T20:34:31.472Z,96554.28
2022-12-12T20:36:59.613Z,96543.31
2022-12-12T20:39:28.285Z,96535.66
2022-12-12T20:41:57.494Z,96548.50
2022-12-12T20:44:26.198Z,96549.06
2022-12-12T20:46:54.892Z,96545.88
2022-12-12T20:49:24.789Z,96553.41
2022-12-12T20:51:56.291Z,96550.03
2022-12-12T20:54:25.387Z,96535.72
2022-12-12T20:56:54.441Z,96544.19
2022-12-12T20:59:23.751Z,96549.31
2022-12-12T21:01:52.494Z,96546.81
2022-12-12T21:04:21.295Z,96546.69
2022-12-12T21:06:51.196Z,96545.72
2022-12-12T21:09:25.343Z,96555.34
2022-12-12T21:11:54.861Z,96555.34
2022-12-12T21:14:24.339Z,96556.13
2022-12-12T21:16:53.009Z,96553.47
2022-12-12T21:19:23.445Z,96544.09
2022-12-12T21:21:52.175Z,96564.41
2022-12-12T21:24:22.798Z,96562.88
2022-12-12T21:26:51.106Z,96564.53
2022-12-12T21:29:19.116Z,96561.06
2022-12-12T21:31:51.647Z,96554.28
2022-12-12T21:34:21.761Z,96558.59
2022-12-12T21:36:52.147Z,96556.94
2022-12-12T21:39:22.104Z,96561.09
2022-12-12T21:41:51.399Z,96559.28
2022-12-12T21:44:20.110Z,96560.34
2022-12-12T21:46:49.201Z,96567.22
2022-12-12T21:49:30.987Z,96561.22
2022-12-12T21:52:01.255Z,96577.22
2022-12-12T21:54:31.857Z,96568.78
2022-12-12T21:57:02.379Z,96569.69
2022-12-12T21:59:31.618Z,96581.44
2022-12-12T22:02:01.289Z,96574.81
2022-12-12T22:04:29.597Z,96577.16
2022-12-12T22:06:59.566Z,96576.31
2022-12-12T22:09:27.921Z,96583.84
2022-12-12T22:12:03.595Z,96587.28
2022-12-12T22:14:33.626Z,96580.50
2022-12-12T22:17:03.506Z,96568.75
2022-12-12T22:19:32.004Z,96575.63
2022-12-12T22:22:00.074Z,96568.91
2022-12-12T22:24:28.627Z,96562.22
2022-12-12T22:26:58.181Z,96571.50
2022-12-12T22:29:26.357Z,96574.06
2022-12-12T22:31:54.586Z,96574.06
2022-12-12T22:34:24.863Z,96574.00
2022-12-12T22:36:54.609Z,96579.75
2022-12-12T22:39:24.935Z,96585.66
2022-12-12T22:41:55.400Z,96580.66
2022-12-12T22:44:26.851Z,96581.44
2022-12-12T22:46:56.573Z,96575.59
2022-12-12T22:49:27.033Z,96575.63
2022-12-12T22:51:56.901Z,96583.16
2022-12-12T22:54:25.790Z,96571.34
2022-12-12T22:56:54.231Z,96572.91
2022-12-12T22:59:22.410Z,96568.56
2022-12-12T23:01:51.855Z,96559.34
2022-12-12T23:04:20.176Z,96559.25
2022-12-12T23:06:48.346Z,96561.91
2022-12-12T23:09:21.389Z,96553.47
2022-12-12T23:11:50.780Z,96553.50
2022-12-12T23:14:22.782Z,96555.19
2022-12-12T23:16:52.965Z,96560.22
2022-12-12T23:19:23.594Z,96561.06
2022-12-12T23:21:53.008Z,96566.97
2022-12-12T23:24:21.216Z,96569.25
2022-12-12T23:26:51.854Z,96565.28
2022-12-12T23:29:20.797Z,96560.94
2022-12-12T23:31:49.317Z,96570.34
2022-12-12T23:34:22.945Z,96565.19
2022-12-12T23:36:52.002Z,96560.25
2022-12-12T23:39:20.704Z,96557.72
2022-12-12T23:41:48.895Z,96558.31
2022-12-12T23:44:20.185Z,96562.66
2022-12-12T23:46:48.347Z,96559.03
2022-12-12T23:49:20.742Z,96565.16
2022-12-12T23:51:50.489Z,96566.81
2022-12-12T23:54:20.718Z,96566.13
2022-12-12T23:56:51.378Z,96572.03
2022-12-12T23:59:21.201Z,96560.22
